This is the latest recevied weather packets stored in our database for station/object W0AKY-13. If no packets are shown the sender has not sent any weather packets the latest 10 day(s).
| Time | Temp. | Humidity | Pressure | Rain* | Wind** | Luminosity | Snow |
|---|---|---|---|---|---|---|---|
| 1777494304 | 17.22° C | 41% | 1020.8 hPa | 0 mm | - | 614 W/m² | - |
| 1777494000 | 16.67° C | 45% | 1020.8 hPa | 0 mm | - | 610 W/m² | - |
| 1777493699 | 16.67° C | 44% | 1021 hPa | 0 mm | - | 625 W/m² | - |
| 1777493395 | 16.67° C | 45% | 1021.1 hPa | 0 mm | - | 611 W/m² | - |
| 1777493092 | 16.67° C | 44% | 1021.1 hPa | 0 mm | - | 609 W/m² | - |
| 1777492789 | 17.22° C | 43% | 1021.1 hPa | 0 mm | - | 615 W/m² | - |
| 1777492484 | 16.67° C | 46% | 1021.4 hPa | 0 mm | - | 628 W/m² | - |
| 1777492181 | 16.67° C | 45% | 1021.2 hPa | 0 mm | - | 629 W/m² | - |
| 1777491878 | 15.56° C | 45% | 1021.4 hPa | 0 mm | - | 639 W/m² | - |
| 1777491574 | 16.11° C | 45% | 1021.6 hPa | 0 mm | - | 643 W/m² | - |
| 1777491272 | 16.67° C | 47% | 1021.5 hPa | 0 mm | - | 648 W/m² | - |
| 1777490969 | 16.67° C | 46% | 1021.6 hPa | 0 mm | - | 643 W/m² | - |
| 1777490665 | 16.11° C | 43% | 1021.5 hPa | 0 mm | - | 652 W/m² | - |
| 1777490360 | 16.11° C | 44% | 1021.8 hPa | 0 mm | - | 677 W/m² | - |
| 1777490058 | 15.56° C | 48% | 1021.4 hPa | 0 mm | - | 665 W/m² | - |
| 1777489755 | 15.56° C | 43% | 1021.5 hPa | 0 mm | - | 670 W/m² | - |
| 1777489453 | 15.56° C | 45% | 1021.6 hPa | 0 mm | - | 674 W/m² | - |
| 1777489149 | 15.56° C | 45% | 1021.7 hPa | 0 mm | - | 685 W/m² | - |
| 1777488847 | 16.11° C | 47% | 1021.7 hPa | 0 mm | - | 685 W/m² | - |
| 1777488543 | 15° C | 48% | 1021.9 hPa | 0 mm | - | 690 W/m² | - |
| 1777488241 | 15° C | 48% | 1022 hPa | 0 mm | - | 698 W/m² | - |
| 1777487939 | 15° C | 48% | 1021.8 hPa | 0 mm | - | 695 W/m² | - |
| 1777487636 | 15° C | 47% | 1022.1 hPa | 0 mm | - | 699 W/m² | - |
| 1777487334 | 15° C | 49% | 1022.1 hPa | 0 mm | - | 703 W/m² | - |
| 1777487031 | 15° C | 51% | 1022.2 hPa | 0 mm | - | 705 W/m² | - |
* Rain latest hour (hover to see other rain measurements)
** Current wind speed in m/s (hover to see current wind gust speed)